createdAt,value
2022-08-03T00:02:18.633Z,6.03
2022-08-03T00:04:46.762Z,6.85
2022-08-03T00:07:15.055Z,5.97
2022-08-03T00:09:42.955Z,6.45
2022-08-03T00:12:11.023Z,6.30
2022-08-03T00:14:40.228Z,6.18
2022-08-03T00:17:08.477Z,6.72
2022-08-03T00:19:36.367Z,6.65
2022-08-03T00:22:04.225Z,6.90
2022-08-03T00:24:32.124Z,6.03
2022-08-03T00:27:00.012Z,6.00
2022-08-03T00:29:28.066Z,5.55
2022-08-03T00:32:00.127Z,5.80
2022-08-03T00:34:36.295Z,5.97
2022-08-03T00:37:16.575Z,5.90
2022-08-03T00:39:46.236Z,5.90
2022-08-03T00:42:14.758Z,5.78
2022-08-03T00:44:44.399Z,5.07
2022-08-03T00:47:14.091Z,5.82
2022-08-03T00:49:42.432Z,6.00
2022-08-03T00:52:11.263Z,5.57
2022-08-03T00:54:39.803Z,5.78
2022-08-03T00:57:08.047Z,5.75
2022-08-03T00:59:38.074Z,5.22
2022-08-03T01:02:06.435Z,6.38
2022-08-03T01:04:35.714Z,6.03
2022-08-03T01:07:11.104Z,5.63
2022-08-03T01:09:47.181Z,6.82
2022-08-03T01:12:23.404Z,6.32
2022-08-03T01:14:56.874Z,6.97
2022-08-03T01:17:29.954Z,6.30
2022-08-03T01:20:02.967Z,6.18
2022-08-03T01:22:54.602Z,5.50
2022-08-03T01:25:36.414Z,5.68
2022-08-03T01:28:21.021Z,5.95
2022-08-03T01:30:51.466Z,6.07
2022-08-03T01:33:25.483Z,5.82
2022-08-03T01:35:58.874Z,5.10
2022-08-03T01:38:30.443Z,5.15
2022-08-03T01:40:58.836Z,5.80
2022-08-03T01:44:26.898Z,5.53
2022-08-03T01:46:21.064Z,5.88
2022-08-03T01:48:50.475Z,5.38
2022-08-03T01:51:21.170Z,5.40
2022-08-03T01:53:51.267Z,4.78
2022-08-03T01:56:21.030Z,6.00
2022-08-03T01:58:50.736Z,5.85
2022-08-03T02:01:22.689Z,5.68
2022-08-03T02:03:52.806Z,4.90
2022-08-03T02:07:00.556Z,5.95
2022-08-03T02:09:20.957Z,5.68
2022-08-03T02:11:50.236Z,5.45
2022-08-03T02:14:19.785Z,6.63
2022-08-03T02:16:51.325Z,6.72
2022-08-03T02:19:20.435Z,6.88
2022-08-03T02:21:57.431Z,7.80
2022-08-03T02:24:30.182Z,6.22
2022-08-03T02:27:00.131Z,6.50
2022-08-03T02:29:39.688Z,6.35
2022-08-03T02:32:13.490Z,5.95
2022-08-03T02:34:46.136Z,6.05
2022-08-03T02:37:15.127Z,5.43
2022-08-03T02:39:44.104Z,5.10
2022-08-03T02:42:15.161Z,5.88
2022-08-03T02:44:48.396Z,5.47
2022-08-03T02:47:20.997Z,5.57
2022-08-03T02:49:52.174Z,5.80
2022-08-03T02:52:23.227Z,5.72
2022-08-03T02:54:53.964Z,5.75
2022-08-03T02:57:24.161Z,5.72
2022-08-03T02:59:53.822Z,4.90
2022-08-03T03:02:24.209Z,5.45
2022-08-03T03:05:51.701Z,5.82
2022-08-03T03:07:52.291Z,6.30
2022-08-03T03:10:22.312Z,6.45
2022-08-03T03:12:52.021Z,5.80
2022-08-03T03:15:20.439Z,7.03
2022-08-03T03:17:51.190Z,6.60
2022-08-03T03:20:29.024Z,6.43
2022-08-03T03:23:00.960Z,5.45
2022-08-03T03:25:29.811Z,6.57
2022-08-03T03:27:58.007Z,6.35
2022-08-03T03:30:26.468Z,5.43
2022-08-03T03:32:56.107Z,5.50
2022-08-03T03:35:24.342Z,6.10
2022-08-03T03:37:53.278Z,6.25
2022-08-03T03:40:21.344Z,5.85
2022-08-03T03:42:50.346Z,5.55
2022-08-03T03:45:18.880Z,6.05
2022-08-03T03:47:46.947Z,5.55
2022-08-03T03:50:18.866Z,5.88
2022-08-03T03:52:46.885Z,6.05
2022-08-03T03:55:17.829Z,5.45
2022-08-03T03:57:46.166Z,6.20
2022-08-03T04:00:15.945Z,5.43
2022-08-03T04:02:44.017Z,5.45
2022-08-03T04:05:29.897Z,6.53
2022-08-03T04:08:18.219Z,5.63
2022-08-03T04:11:01.300Z,6.07
2022-08-03T04:13:32.857Z,5.22
2022-08-03T04:16:01.844Z,6.47
2022-08-03T04:18:32.670Z,5.97
2022-08-03T04:21:04.411Z,4.90
2022-08-03T04:23:36.645Z,6.43
2022-08-03T04:26:09.649Z,6.00
2022-08-03T04:28:40.560Z,4.93
2022-08-03T04:31:08.988Z,5.65
2022-08-03T04:33:39.445Z,5.60
2022-08-03T04:36:09.796Z,5.68
2022-08-03T04:38:45.026Z,5.57
2022-08-03T04:41:13.900Z,5.13
2022-08-03T04:43:42.701Z,5.32
2022-08-03T04:46:11.571Z,5.78
2022-08-03T04:48:44.382Z,6.53
2022-08-03T04:51:13.224Z,5.10
2022-08-03T04:53:43.696Z,5.80
2022-08-03T04:56:11.695Z,5.13
2022-08-03T04:58:39.561Z,4.70
2022-08-03T05:01:07.439Z,5.15
2022-08-03T05:03:35.399Z,5.50
2022-08-03T05:06:11.056Z,5.20
2022-08-03T05:08:46.199Z,5.47
2022-08-03T05:11:18.171Z,5.93
2022-08-03T05:13:46.614Z,5.25
2022-08-03T05:16:15.372Z,5.55
2022-08-03T05:18:43.561Z,5.25
2022-08-03T05:21:13.885Z,5.55
2022-08-03T05:23:41.792Z,5.32
2022-08-03T05:26:11.667Z,5.38
2022-08-03T05:28:50.970Z,5.53
2022-08-03T05:31:19.750Z,5.28
2022-08-03T05:33:48.867Z,5.10
2022-08-03T05:36:17.051Z,4.72
2022-08-03T05:38:44.899Z,4.75
2022-08-03T05:41:21.710Z,4.40
2022-08-03T05:43:53.688Z,4.50
2022-08-03T05:46:21.829Z,4.72
2022-08-03T05:48:49.777Z,4.38
2022-08-03T05:51:17.788Z,4.88
2022-08-03T05:53:46.192Z,4.82
2022-08-03T05:56:16.302Z,4.95
2022-08-03T05:58:45.882Z,4.88
2022-08-03T06:01:15.344Z,4.88
2022-08-03T06:03:43.293Z,4.25
2022-08-03T06:06:11.607Z,3.70
2022-08-03T06:08:39.812Z,4.32
2022-08-03T06:11:07.691Z,3.83
2022-08-03T06:13:35.958Z,4.47
2022-08-03T06:16:04.366Z,4.50
2022-08-03T06:18:33.575Z,4.20
2022-08-03T06:21:14.831Z,3.85
2022-08-03T06:23:53.167Z,3.70
2022-08-03T06:26:22.840Z,3.80
2022-08-03T06:28:52.674Z,3.33
2022-08-03T06:31:22.829Z,3.75
2022-08-03T06:34:32.196Z,3.63
2022-08-03T06:36:40.315Z,3.92
2022-08-03T06:39:08.433Z,3.33
2022-08-03T06:41:37.511Z,3.40
2022-08-03T06:44:06.377Z,2.60
2022-08-03T06:46:34.283Z,2.90
2022-08-03T06:49:03.625Z,2.58
2022-08-03T06:52:04.147Z,2.33
2022-08-03T06:54:19.358Z,2.42
2022-08-03T06:56:47.210Z,2.65
2022-08-03T07:00:08.573Z,2.33
2022-08-03T07:02:02.894Z,2.47
2022-08-03T07:04:32.163Z,2.67
2022-08-03T07:07:00.139Z,2.63
2022-08-03T07:09:28.120Z,2.58
2022-08-03T07:11:57.023Z,1.90
2022-08-03T07:14:24.891Z,2.10
2022-08-03T07:16:52.756Z,2.45
2022-08-03T07:19:20.590Z,2.40
2022-08-03T07:21:49.799Z,2.05
2022-08-03T07:24:21.599Z,1.83
2022-08-03T07:26:49.539Z,1.90
2022-08-03T07:29:17.472Z,2.60
2022-08-03T07:31:45.767Z,1.98
2022-08-03T07:34:13.678Z,2.20
2022-08-03T07:36:41.535Z,2.00
2022-08-03T07:39:16.630Z,2.17
2022-08-03T07:41:45.985Z,1.90
2022-08-03T07:44:13.843Z,2.10
2022-08-03T07:46:41.702Z,1.80
2022-08-03T07:49:09.759Z,1.70
2022-08-03T07:51:37.895Z,1.88
2022-08-03T07:54:06.501Z,1.60
2022-08-03T07:56:36.690Z,1.50
2022-08-03T07:59:05.041Z,1.27
2022-08-03T08:01:36.612Z,1.25
2022-08-03T08:04:04.746Z,1.40
2022-08-03T08:06:33.260Z,1.50
2022-08-03T08:09:02.317Z,1.70
2022-08-03T08:11:30.161Z,1.30
2022-08-03T08:14:02.581Z,1.10
2022-08-03T08:16:30.535Z,1.35
2022-08-03T08:18:58.398Z,1.20
2022-08-03T08:21:26.385Z,1.63
2022-08-03T08:24:18.191Z,1.35
2022-08-03T08:26:47.641Z,1.50
2022-08-03T08:29:16.831Z,1.20
2022-08-03T08:31:44.700Z,1.23
2022-08-03T08:34:12.553Z,1.23
2022-08-03T08:36:40.435Z,1.83
2022-08-03T08:39:08.333Z,1.05
2022-08-03T08:41:36.338Z,1.10
2022-08-03T08:44:04.508Z,0.80
2022-08-03T08:46:34.843Z,0.85
2022-08-03T08:49:04.678Z,1.02
2022-08-03T08:51:50.999Z,0.98
2022-08-03T08:54:26.264Z,1.15
2022-08-03T08:56:59.243Z,1.20
2022-08-03T08:59:27.837Z,1.17
2022-08-03T09:02:17.306Z,0.90
2022-08-03T09:04:48.704Z,1.10
2022-08-03T09:07:29.105Z,1.25
2022-08-03T09:10:11.513Z,1.10
2022-08-03T09:12:43.106Z,1.30
2022-08-03T09:15:22.324Z,1.00
2022-08-03T09:17:52.594Z,1.02
2022-08-03T09:20:21.960Z,1.25
2022-08-03T09:22:54.816Z,1.10
2022-08-03T09:25:28.918Z,1.40
2022-08-03T09:28:05.123Z,1.20
2022-08-03T09:30:34.519Z,1.02
2022-08-03T09:33:05.806Z,1.23
2022-08-03T09:38:26.078Z,1.10
2022-08-03T09:40:59.505Z,1.40
2022-08-03T09:43:28.771Z,1.40
2022-08-03T09:46:04.159Z,1.10
2022-08-03T09:48:34.844Z,1.10
2022-08-03T09:51:12.496Z,1.00
2022-08-03T09:53:57.231Z,1.00
2022-08-03T09:56:43.253Z,1.05
2022-08-03T09:59:11.910Z,0.90
2022-08-03T10:01:42.452Z,0.98
2022-08-03T10:04:17.004Z,1.15
2022-08-03T10:06:45.866Z,0.88
2022-08-03T10:09:15.517Z,1.08
2022-08-03T10:11:46.782Z,1.23
2022-08-03T10:14:19.065Z,0.98
2022-08-03T10:16:48.667Z,1.02
2022-08-03T10:19:19.321Z,1.20
2022-08-03T10:21:51.502Z,1.20
2022-08-03T10:24:25.926Z,1.20
2022-08-03T10:26:57.986Z,1.27
2022-08-03T10:29:29.186Z,1.25
2022-08-03T10:31:59.973Z,1.23
2022-08-03T10:34:34.928Z,1.23
2022-08-03T10:37:08.959Z,1.00
2022-08-03T10:39:37.415Z,1.33
2022-08-03T10:42:10.768Z,2.13
2022-08-03T10:44:43.616Z,1.13
2022-08-03T10:47:12.363Z,1.00
2022-08-03T10:49:42.493Z,1.20
2022-08-03T10:52:13.409Z,0.90
2022-08-03T10:55:16.211Z,1.30
2022-08-03T10:57:58.358Z,1.15
2022-08-03T11:00:30.259Z,0.90
2022-08-03T11:03:07.273Z,1.00
2022-08-03T11:05:38.630Z,0.88
2022-08-03T11:08:24.430Z,1.00
2022-08-03T11:10:54.081Z,1.23
2022-08-03T11:13:24.806Z,1.15
2022-08-03T11:15:59.803Z,1.23
2022-08-03T11:18:30.996Z,1.17
2022-08-03T11:21:01.322Z,1.00
2022-08-03T11:24:04.082Z,1.30
2022-08-03T11:26:31.671Z,0.75
2022-08-03T11:29:30.018Z,1.48
2022-08-03T11:31:58.471Z,1.13
2022-08-03T11:34:26.533Z,1.27
2022-08-03T11:37:23.291Z,1.42
2022-08-03T11:39:57.012Z,1.48
2022-08-03T11:42:48.193Z,1.00
2022-08-03T11:45:16.722Z,1.40
2022-08-03T11:47:50.560Z,1.92
2022-08-03T11:50:21.132Z,1.15
2022-08-03T11:52:51.484Z,2.15
2022-08-03T11:55:22.102Z,1.30
2022-08-03T11:59:17.419Z,1.20
2022-08-03T12:00:38.622Z,1.30
2022-08-03T12:03:09.369Z,1.27
2022-08-03T12:05:51.373Z,1.10
2022-08-03T12:08:32.222Z,1.48
2022-08-03T12:11:02.251Z,1.35
2022-08-03T12:14:44.705Z,1.20
2022-08-03T12:16:28.563Z,1.17
2022-08-03T12:18:57.663Z,1.30
2022-08-03T12:21:25.715Z,1.33
2022-08-03T12:24:00.320Z,1.30
2022-08-03T12:26:29.266Z,1.40
2022-08-03T12:28:58.547Z,1.45
2022-08-03T12:31:26.770Z,0.95
2022-08-03T12:33:59.528Z,1.23
2022-08-03T12:36:28.524Z,1.08
2022-08-03T12:39:00.078Z,1.38
2022-08-03T12:41:34.017Z,1.08
2022-08-03T12:44:03.328Z,0.95
2022-08-03T12:46:34.110Z,1.27
2022-08-03T12:49:07.972Z,1.30
2022-08-03T12:51:38.073Z,1.30
2022-08-03T12:54:07.529Z,1.23
2022-08-03T12:56:36.071Z,1.15
2022-08-03T12:59:25.716Z,1.20
2022-08-03T13:02:04.458Z,1.27
2022-08-03T13:04:37.845Z,1.30
2022-08-03T13:07:12.850Z,0.90
2022-08-03T13:09:45.440Z,0.90
2022-08-03T13:12:14.775Z,1.25
2022-08-03T13:14:44.277Z,1.00
2022-08-03T13:17:12.453Z,0.90
2022-08-03T13:19:41.077Z,1.00
2022-08-03T13:22:13.415Z,1.00
2022-08-03T13:24:43.213Z,1.02
2022-08-03T13:28:02.086Z,1.20
2022-08-03T13:29:59.457Z,1.10
2022-08-03T13:32:27.367Z,0.90
2022-08-03T13:34:55.208Z,0.93
2022-08-03T13:37:23.392Z,1.02
2022-08-03T13:39:59.558Z,1.88
2022-08-03T13:42:30.436Z,1.00
2022-08-03T13:44:58.680Z,0.98
2022-08-03T13:47:26.794Z,1.20
2022-08-03T13:50:01.133Z,1.02
2022-08-03T13:52:32.388Z,1.23
2022-08-03T13:55:01.944Z,1.20
2022-08-03T13:58:03.395Z,1.13
2022-08-03T14:00:27.093Z,1.25
2022-08-03T14:03:03.842Z,1.50
2022-08-03T14:05:33.929Z,1.40
2022-08-03T14:08:04.821Z,1.10
2022-08-03T14:10:38.207Z,1.27
2022-08-03T14:13:06.659Z,1.40
2022-08-03T14:15:38.310Z,1.30
2022-08-03T14:18:07.384Z,1.33
2022-08-03T14:20:48.623Z,1.00
2022-08-03T14:23:18.497Z,1.60
2022-08-03T14:25:51.447Z,1.20
2022-08-03T14:28:22.357Z,1.88
2022-08-03T14:30:50.547Z,1.20
2022-08-03T14:33:18.598Z,1.30
2022-08-03T14:35:46.731Z,1.50
2022-08-03T14:38:14.648Z,1.70
2022-08-03T14:40:42.753Z,1.67
2022-08-03T14:43:12.089Z,1.70
2022-08-03T14:45:40.665Z,1.50
2022-08-03T14:50:29.465Z,1.90
2022-08-03T14:50:56.734Z,1.50
2022-08-03T14:53:25.034Z,1.40
2022-08-03T14:55:53.400Z,2.05
2022-08-03T14:58:25.126Z,1.38
2022-08-03T15:00:56.007Z,1.33
2022-08-03T15:03:25.152Z,1.15
2022-08-03T15:05:53.411Z,1.67
2022-08-03T15:08:21.828Z,1.63
2022-08-03T15:10:50.408Z,1.40
2022-08-03T15:13:19.397Z,1.58
2022-08-03T15:15:49.574Z,1.55
2022-08-03T15:18:17.479Z,1.75
2022-08-03T15:20:46.952Z,1.77
2022-08-03T15:23:16.192Z,1.48
2022-08-03T15:26:29.454Z,1.48
2022-08-03T15:28:32.711Z,1.77
2022-08-03T15:31:02.009Z,1.58
2022-08-03T15:33:30.261Z,1.38
2022-08-03T15:35:59.889Z,1.73
2022-08-03T15:38:27.776Z,1.45
2022-08-03T15:40:56.072Z,1.30
2022-08-03T15:43:24.758Z,1.67
2022-08-03T15:46:26.464Z,1.55
2022-08-03T15:51:11.277Z,1.42
2022-08-03T15:53:39.323Z,1.38
2022-08-03T15:56:13.311Z,1.20
2022-08-03T15:59:07.627Z,1.33
2022-08-03T16:01:32.798Z,1.67
2022-08-03T16:04:02.107Z,1.55
2022-08-03T16:06:35.806Z,1.20
2022-08-03T16:09:24.153Z,1.50
2022-08-03T16:11:54.663Z,1.63
2022-08-03T16:14:34.685Z,1.83
2022-08-03T16:17:04.224Z,1.48
2022-08-03T16:19:33.916Z,1.35
2022-08-03T16:22:03.483Z,2.00
2022-08-03T16:24:31.985Z,1.70
2022-08-03T16:27:00.712Z,1.52
2022-08-03T16:29:29.382Z,1.20
2022-08-03T16:31:57.414Z,1.80
2022-08-03T16:34:25.283Z,1.50
2022-08-03T16:36:54.653Z,1.27
2022-08-03T16:39:22.640Z,1.75
2022-08-03T16:41:54.243Z,1.75
2022-08-03T16:44:30.516Z,2.00
2022-08-03T16:46:58.778Z,1.60
2022-08-03T16:49:55.031Z,1.98
2022-08-03T16:52:18.006Z,1.50
2022-08-03T16:54:53.276Z,1.73
2022-08-03T16:57:58.944Z,1.20
2022-08-03T17:00:34.023Z,1.40
2022-08-03T17:03:04.613Z,1.90
2022-08-03T17:05:47.672Z,1.70
2022-08-03T17:08:26.175Z,1.73
2022-08-03T17:10:55.565Z,2.20
2022-08-03T17:13:27.576Z,2.50
2022-08-03T17:16:09.633Z,1.90
2022-08-03T17:18:42.255Z,1.67
2022-08-03T17:21:18.057Z,1.58
2022-08-03T17:23:55.782Z,2.15
2022-08-03T17:26:30.386Z,1.70
2022-08-03T17:29:11.150Z,1.50
2022-08-03T17:31:48.891Z,2.20
2022-08-03T17:34:18.155Z,1.73
2022-08-03T17:37:03.691Z,1.80
2022-08-03T17:42:33.099Z,1.35
2022-08-03T17:45:03.822Z,1.90
2022-08-03T17:47:42.151Z,1.52
2022-08-03T17:50:23.327Z,2.15
2022-08-03T17:52:59.412Z,1.75
2022-08-03T17:55:56.673Z,2.20
2022-08-03T17:58:26.570Z,2.13
2022-08-03T18:01:59.624Z,2.08
2022-08-03T18:04:11.185Z,1.52
2022-08-03T18:06:55.647Z,2.50
2022-08-03T18:10:04.288Z,1.77
2022-08-03T18:12:29.646Z,1.48
2022-08-03T18:15:01.191Z,1.63
2022-08-03T18:20:33.114Z,1.95
2022-08-03T18:23:04.781Z,1.65
2022-08-03T18:25:38.282Z,1.90
2022-08-03T18:28:18.846Z,2.13
2022-08-03T18:30:53.936Z,2.45
2022-08-03T18:38:46.793Z,1.92
2022-08-03T18:41:22.161Z,1.48
2022-08-03T18:44:07.983Z,2.25
2022-08-03T18:46:51.283Z,1.92
2022-08-03T18:49:33.302Z,1.77
2022-08-03T18:52:12.265Z,1.92
2022-08-03T18:55:12.533Z,1.80
2022-08-03T18:57:53.285Z,2.10
2022-08-03T19:00:24.991Z,1.73
2022-08-03T19:03:20.462Z,2.05
2022-08-03T19:06:04.452Z,1.90
2022-08-03T19:08:44.877Z,1.90
2022-08-03T19:13:50.179Z,1.52
2022-08-03T19:16:28.616Z,2.10
2022-08-03T19:19:00.393Z,2.08
2022-08-03T19:21:30.667Z,2.05
2022-08-03T19:24:03.722Z,2.00
2022-08-03T19:26:36.304Z,1.90
2022-08-03T19:29:10.823Z,2.00
2022-08-03T19:31:59.160Z,2.03
2022-08-03T19:34:29.200Z,2.20
2022-08-03T19:36:58.468Z,1.85
2022-08-03T19:39:26.691Z,1.55
2022-08-03T19:42:08.104Z,2.10
2022-08-03T19:44:40.999Z,1.80
2022-08-03T19:47:16.991Z,2.08
2022-08-03T19:50:04.869Z,2.15
2022-08-03T19:52:36.409Z,2.55
2022-08-03T19:55:07.097Z,1.88
2022-08-03T19:57:36.547Z,2.13
2022-08-03T20:00:07.492Z,1.65
2022-08-03T20:02:36.899Z,2.28
2022-08-03T20:05:05.501Z,2.40
2022-08-03T20:07:47.777Z,2.15
2022-08-03T20:10:17.309Z,2.10
2022-08-03T20:12:46.700Z,1.83
2022-08-03T20:15:18.378Z,2.10
2022-08-03T20:17:54.332Z,2.03
2022-08-03T20:20:27.313Z,2.08
2022-08-03T20:22:58.135Z,2.10
2022-08-03T20:25:38.216Z,2.38
2022-08-03T20:28:14.154Z,1.90
2022-08-03T20:30:44.458Z,2.33
2022-08-03T20:33:18.779Z,2.28
2022-08-03T20:38:43.760Z,2.40
2022-08-03T20:41:15.635Z,2.60
2022-08-03T20:43:43.733Z,2.58
2022-08-03T20:46:32.680Z,2.20
2022-08-03T20:49:03.962Z,2.30
2022-08-03T20:51:49.871Z,2.20
2022-08-03T20:54:28.839Z,2.08
2022-08-03T20:56:58.654Z,1.95
2022-08-03T20:59:33.626Z,1.85
2022-08-03T21:02:06.869Z,2.08
2022-08-03T21:04:42.005Z,2.30
2022-08-03T21:07:19.796Z,2.03
2022-08-03T21:09:55.377Z,2.15
2022-08-03T21:12:31.085Z,2.35
2022-08-03T21:12:58.400Z,1.80
2022-08-03T21:13:12.230Z,2.10
2022-08-03T21:15:04.857Z,2.80
2022-08-03T21:17:42.100Z,2.15
2022-08-03T21:20:13.872Z,2.38
2022-08-03T21:22:46.472Z,3.05
2022-08-03T21:25:16.786Z,2.58
2022-08-03T21:27:44.777Z,2.20
2022-08-03T21:30:15.317Z,2.10
2022-08-03T21:32:45.472Z,1.90
2022-08-03T21:35:16.553Z,2.05
2022-08-03T21:37:45.658Z,2.60
2022-08-03T21:40:16.464Z,2.30
2022-08-03T21:42:46.132Z,2.30
2022-08-03T21:45:17.778Z,2.22
2022-08-03T21:47:46.686Z,2.08
2022-08-03T21:50:16.702Z,2.05
2022-08-03T21:52:46.851Z,2.00
2022-08-03T21:55:18.671Z,2.00
2022-08-03T21:57:54.334Z,1.77
2022-08-03T22:00:24.052Z,1.80
2022-08-03T22:02:55.377Z,2.22
2022-08-03T22:05:42.733Z,1.80
2022-08-03T22:08:14.159Z,1.90
2022-08-03T22:10:44.580Z,2.05
2022-08-03T22:13:12.876Z,1.80
2022-08-03T22:15:41.284Z,1.80
2022-08-03T22:18:09.322Z,1.70
2022-08-03T22:20:38.662Z,1.58
2022-08-03T22:23:07.912Z,1.67
2022-08-03T22:25:39.424Z,1.90
2022-08-03T22:28:11.649Z,1.77
2022-08-03T22:30:40.294Z,1.77
2022-08-03T22:33:11.605Z,1.60
2022-08-03T22:35:47.892Z,2.10
2022-08-03T22:38:17.591Z,1.60
2022-08-03T22:40:47.950Z,1.58
2022-08-03T22:43:15.895Z,1.60
2022-08-03T22:46:10.598Z,1.60
2022-08-03T22:48:35.311Z,1.40
2022-08-03T22:51:10.466Z,2.38
2022-08-03T22:53:40.368Z,1.52
2022-08-03T22:56:08.618Z,1.80
2022-08-03T22:58:36.446Z,1.52
2022-08-03T23:01:07.124Z,1.48
2022-08-03T23:04:00.638Z,1.30
2022-08-03T23:06:31.127Z,1.88
2022-08-03T23:08:59.221Z,1.80
2022-08-03T23:11:28.525Z,1.65
2022-08-03T23:13:57.679Z,1.83
2022-08-03T23:16:28.615Z,1.75
2022-08-03T23:18:59.384Z,1.90
2022-08-03T23:22:00.088Z,1.48
2022-08-03T23:24:29.074Z,2.20
2022-08-03T23:26:58.182Z,1.92
2022-08-03T23:29:29.249Z,2.00
2022-08-03T23:31:58.429Z,1.70
2022-08-03T23:34:44.946Z,1.73
2022-08-03T23:37:15.845Z,2.03
2022-08-03T23:39:46.259Z,1.63
2022-08-03T23:42:16.071Z,1.80
2022-08-03T23:44:44.872Z,1.85
2022-08-03T23:47:12.821Z,1.77
2022-08-03T23:49:40.825Z,1.50
2022-08-03T23:52:15.709Z,1.50
2022-08-03T23:54:53.410Z,1.73
2022-08-03T23:57:30.278Z,2.63
